sensor_id;sensor_type;location;lat;lon;timestamp;P1;durP1;ratioP1;P2;durP2;ratioP2
20302;SDS011;10310;50.906;4.622;2022-08-11T00:01:51;4.93;;;4.03;;
20302;SDS011;10310;50.906;4.622;2022-08-11T00:04:20;4.53;;;4.13;;
20302;SDS011;10310;50.906;4.622;2022-08-11T00:06:52;6.73;;;4.33;;
20302;SDS011;10310;50.906;4.622;2022-08-11T00:09:21;5.03;;;3.93;;
20302;SDS011;10310;50.906;4.622;2022-08-11T00:11:56;4.90;;;4.17;;
20302;SDS011;10310;50.906;4.622;2022-08-11T00:14:24;6.63;;;4.23;;
20302;SDS011;10310;50.906;4.622;2022-08-11T00:16:54;5.33;;;3.90;;
20302;SDS011;10310;50.906;4.622;2022-08-11T00:19:23;5.07;;;4.20;;
20302;SDS011;10310;50.906;4.622;2022-08-11T00:21:53;7.03;;;4.67;;
20302;SDS011;10310;50.906;4.622;2022-08-11T00:24:23;6.63;;;5.03;;
20302;SDS011;10310;50.906;4.622;2022-08-11T00:26:51;4.90;;;4.23;;
20302;SDS011;10310;50.906;4.622;2022-08-11T00:29:19;6.97;;;4.50;;
20302;SDS011;10310;50.906;4.622;2022-08-11T00:31:47;6.67;;;4.57;;
20302;SDS011;10310;50.906;4.622;2022-08-11T00:34:18;7.83;;;4.70;;
20302;SDS011;10310;50.906;4.622;2022-08-11T00:36:49;5.07;;;4.57;;
20302;SDS011;10310;50.906;4.622;2022-08-11T00:39:21;6.13;;;4.90;;
20302;SDS011;10310;50.906;4.622;2022-08-11T00:41:58;7.83;;;4.60;;
20302;SDS011;10310;50.906;4.622;2022-08-11T00:44:37;6.67;;;4.80;;
20302;SDS011;10310;50.906;4.622;2022-08-11T00:47:15;6.50;;;4.70;;
20302;SDS011;10310;50.906;4.622;2022-08-11T00:49:51;5.60;;;4.90;;
20302;SDS011;10310;50.906;4.622;2022-08-11T00:52:35;5.40;;;4.93;;
20302;SDS011;10310;50.906;4.622;2022-08-11T00:55:29;5.93;;;5.10;;
20302;SDS011;10310;50.906;4.622;2022-08-11T01:01:13;5.93;;;4.87;;
20302;SDS011;10310;50.906;4.622;2022-08-11T01:07:13;5.33;;;4.23;;
20302;SDS011;10310;50.906;4.622;2022-08-11T01:10:08;8.87;;;4.93;;
20302;SDS011;10310;50.906;4.622;2022-08-11T01:12:52;6.23;;;5.47;;
20302;SDS011;10310;50.906;4.622;2022-08-11T01:15:36;7.17;;;5.03;;
20302;SDS011;10310;50.906;4.622;2022-08-11T01:21:53;5.80;;;5.20;;
20302;SDS011;10310;50.906;4.622;2022-08-11T01:34:01;6.70;;;5.07;;
20302;SDS011;10310;50.906;4.622;2022-08-11T01:43:16;5.57;;;5.07;;
20302;SDS011;10310;50.906;4.622;2022-08-11T01:46:23;5.77;;;5.27;;
20302;SDS011;10310;50.906;4.622;2022-08-11T01:49:00;6.13;;;5.30;;
20302;SDS011;10310;50.906;4.622;2022-08-11T01:51:37;5.97;;;5.47;;
20302;SDS011;10310;50.906;4.622;2022-08-11T01:54:26;6.27;;;5.70;;
20302;SDS011;10310;50.906;4.622;2022-08-11T01:57:02;5.93;;;5.10;;
20302;SDS011;10310;50.906;4.622;2022-08-11T01:59:40;5.93;;;5.17;;
20302;SDS011;10310;50.906;4.622;2022-08-11T02:02:25;7.67;;;4.83;;
20302;SDS011;10310;50.906;4.622;2022-08-11T02:05:29;7.53;;;4.93;;
20302;SDS011;10310;50.906;4.622;2022-08-11T02:08:16;5.70;;;5.20;;
20302;SDS011;10310;50.906;4.622;2022-08-11T02:10:57;6.73;;;5.83;;
20302;SDS011;10310;50.906;4.622;2022-08-11T02:13:52;5.83;;;5.23;;
20302;SDS011;10310;50.906;4.622;2022-08-11T02:16:31;7.77;;;5.37;;
20302;SDS011;10310;50.906;4.622;2022-08-11T02:19:19;8.10;;;5.90;;
20302;SDS011;10310;50.906;4.622;2022-08-11T02:22:08;6.53;;;5.80;;
20302;SDS011;10310;50.906;4.622;2022-08-11T02:24:59;8.30;;;5.43;;
20302;SDS011;10310;50.906;4.622;2022-08-11T02:27:33;6.10;;;5.50;;
20302;SDS011;10310;50.906;4.622;2022-08-11T02:30:06;6.90;;;5.40;;
20302;SDS011;10310;50.906;4.622;2022-08-11T02:32:38;5.87;;;5.37;;
20302;SDS011;10310;50.906;4.622;2022-08-11T02:35:37;6.07;;;5.00;;
20302;SDS011;10310;50.906;4.622;2022-08-11T02:38:16;8.07;;;5.30;;
20302;SDS011;10310;50.906;4.622;2022-08-11T02:40:52;7.60;;;5.30;;
20302;SDS011;10310;50.906;4.622;2022-08-11T02:43:29;6.87;;;5.53;;
20302;SDS011;10310;50.906;4.622;2022-08-11T02:46:15;5.47;;;5.00;;
20302;SDS011;10310;50.906;4.622;2022-08-11T02:48:49;5.97;;;5.27;;
20302;SDS011;10310;50.906;4.622;2022-08-11T02:51:41;5.70;;;5.20;;
20302;SDS011;10310;50.906;4.622;2022-08-11T02:54:22;8.97;;;6.37;;
20302;SDS011;10310;50.906;4.622;2022-08-11T02:56:55;6.67;;;6.07;;
20302;SDS011;10310;50.906;4.622;2022-08-11T02:59:27;7.13;;;5.30;;
20302;SDS011;10310;50.906;4.622;2022-08-11T03:02:19;6.10;;;5.50;;
20302;SDS011;10310;50.906;4.622;2022-08-11T03:04:59;5.80;;;5.30;;
20302;SDS011;10310;50.906;4.622;2022-08-11T03:07:33;8.13;;;5.47;;
20302;SDS011;10310;50.906;4.622;2022-08-11T03:10:07;5.60;;;5.07;;
20302;SDS011;10310;50.906;4.622;2022-08-11T03:12:44;7.40;;;4.77;;
20302;SDS011;10310;50.906;4.622;2022-08-11T03:15:41;5.67;;;5.17;;
20302;SDS011;10310;50.906;4.622;2022-08-11T03:18:30;6.20;;;5.60;;
20302;SDS011;10310;50.906;4.622;2022-08-11T03:21:06;5.70;;;5.17;;
20302;SDS011;10310;50.906;4.622;2022-08-11T03:23:40;7.00;;;5.53;;
20302;SDS011;10310;50.906;4.622;2022-08-11T03:26:14;6.07;;;5.50;;
20302;SDS011;10310;50.906;4.622;2022-08-11T03:28:50;6.47;;;5.87;;
20302;SDS011;10310;50.906;4.622;2022-08-11T03:31:27;7.93;;;5.63;;
20302;SDS011;10310;50.906;4.622;2022-08-11T03:33:59;6.23;;;5.63;;
20302;SDS011;10310;50.906;4.622;2022-08-11T03:36:50;6.50;;;5.90;;
20302;SDS011;10310;50.906;4.622;2022-08-11T03:39:59;6.37;;;5.20;;
20302;SDS011;10310;50.906;4.622;2022-08-11T03:42:35;5.97;;;5.37;;
20302;SDS011;10310;50.906;4.622;2022-08-11T03:45:20;5.33;;;4.87;;
20302;SDS011;10310;50.906;4.622;2022-08-11T03:47:56;5.90;;;5.23;;
20302;SDS011;10310;50.906;4.622;2022-08-11T03:50:52;8.40;;;5.10;;
20302;SDS011;10310;50.906;4.622;2022-08-11T03:56:22;8.73;;;5.60;;
20302;SDS011;10310;50.906;4.622;2022-08-11T03:59:26;7.10;;;5.70;;
20302;SDS011;10310;50.906;4.622;2022-08-11T04:02:16;8.33;;;6.33;;
20302;SDS011;10310;50.906;4.622;2022-08-11T04:08:05;7.00;;;5.70;;
20302;SDS011;10310;50.906;4.622;2022-08-11T04:20:50;7.37;;;6.10;;
20302;SDS011;10310;50.906;4.622;2022-08-11T04:26:35;10.07;;;6.60;;
20302;SDS011;10310;50.906;4.622;2022-08-11T04:29:44;7.33;;;6.30;;
20302;SDS011;10310;50.906;4.622;2022-08-11T04:32:41;6.40;;;5.90;;
20302;SDS011;10310;50.906;4.622;2022-08-11T04:35:38;7.97;;;6.40;;
20302;SDS011;10310;50.906;4.622;2022-08-11T04:47:39;6.30;;;5.67;;
20302;SDS011;10310;50.906;4.622;2022-08-11T04:50:36;7.83;;;5.93;;
20302;SDS011;10310;50.906;4.622;2022-08-11T04:53:41;7.70;;;5.50;;
20302;SDS011;10310;50.906;4.622;2022-08-11T04:56:32;9.47;;;5.67;;
20302;SDS011;10310;50.906;4.622;2022-08-11T05:02:56;6.83;;;5.37;;
20302;SDS011;10310;50.906;4.622;2022-08-11T05:05:52;5.93;;;5.43;;
20302;SDS011;10310;50.906;4.622;2022-08-11T05:08:47;6.83;;;5.30;;
20302;SDS011;10310;50.906;4.622;2022-08-11T05:14:40;7.30;;;5.67;;
20302;SDS011;10310;50.906;4.622;2022-08-11T05:17:37;6.47;;;5.30;;
20302;SDS011;10310;50.906;4.622;2022-08-11T05:20:24;5.67;;;5.20;;
20302;SDS011;10310;50.906;4.622;2022-08-11T05:23:09;5.80;;;5.10;;
20302;SDS011;10310;50.906;4.622;2022-08-11T05:25:55;5.80;;;5.23;;
20302;SDS011;10310;50.906;4.622;2022-08-11T05:28:45;6.07;;;5.07;;
20302;SDS011;10310;50.906;4.622;2022-08-11T05:31:36;5.30;;;4.80;;
20302;SDS011;10310;50.906;4.622;2022-08-11T05:34:25;5.90;;;5.30;;
20302;SDS011;10310;50.906;4.622;2022-08-11T05:37:12;8.30;;;5.27;;
20302;SDS011;10310;50.906;4.622;2022-08-11T05:39:45;5.53;;;5.03;;
20302;SDS011;10310;50.906;4.622;2022-08-11T05:42:31;7.30;;;5.50;;
20302;SDS011;10310;50.906;4.622;2022-08-11T05:45:20;12.13;;;6.93;;
20302;SDS011;10310;50.906;4.622;2022-08-11T05:48:06;12.97;;;6.10;;
20302;SDS011;10310;50.906;4.622;2022-08-11T05:50:53;13.37;;;6.20;;
20302;SDS011;10310;50.906;4.622;2022-08-11T05:53:47;10.70;;;6.87;;
20302;SDS011;10310;50.906;4.622;2022-08-11T05:59:20;12.20;;;5.80;;
20302;SDS011;10310;50.906;4.622;2022-08-11T06:01:49;8.83;;;6.53;;
20302;SDS011;10310;50.906;4.622;2022-08-11T06:04:18;10.20;;;7.30;;
20302;SDS011;10310;50.906;4.622;2022-08-11T06:06:49;9.00;;;6.63;;
20302;SDS011;10310;50.906;4.622;2022-08-11T06:09:22;14.50;;;6.33;;
20302;SDS011;10310;50.906;4.622;2022-08-11T06:11:51;12.13;;;6.73;;
20302;SDS011;10310;50.906;4.622;2022-08-11T06:14:21;9.07;;;6.20;;
20302;SDS011;10310;50.906;4.622;2022-08-11T06:16:51;11.03;;;6.83;;
20302;SDS011;10310;50.906;4.622;2022-08-11T06:19:23;8.87;;;5.87;;
20302;SDS011;10310;50.906;4.622;2022-08-11T06:21:59;10.53;;;6.37;;
20302;SDS011;10310;50.906;4.622;2022-08-11T06:24:27;7.50;;;6.30;;
20302;SDS011;10310;50.906;4.622;2022-08-11T06:26:56;8.07;;;6.50;;
20302;SDS011;10310;50.906;4.622;2022-08-11T06:29:24;8.63;;;5.97;;
20302;SDS011;10310;50.906;4.622;2022-08-11T06:31:52;7.27;;;6.50;;
20302;SDS011;10310;50.906;4.622;2022-08-11T06:34:27;6.97;;;5.80;;
20302;SDS011;10310;50.906;4.622;2022-08-11T06:39:56;10.00;;;6.53;;
20302;SDS011;10310;50.906;4.622;2022-08-11T06:42:43;8.80;;;5.90;;
20302;SDS011;10310;50.906;4.622;2022-08-11T06:45:19;9.57;;;6.40;;
20302;SDS011;10310;50.906;4.622;2022-08-11T06:47:52;8.43;;;7.10;;
20302;SDS011;10310;50.906;4.622;2022-08-11T06:50:23;9.87;;;6.57;;
20302;SDS011;10310;50.906;4.622;2022-08-11T06:53:09;8.60;;;6.00;;
20302;SDS011;10310;50.906;4.622;2022-08-11T06:55:38;8.87;;;6.00;;
20302;SDS011;10310;50.906;4.622;2022-08-11T06:58:27;9.00;;;6.10;;
20302;SDS011;10310;50.906;4.622;2022-08-11T07:01:14;7.30;;;6.37;;
20302;SDS011;10310;50.906;4.622;2022-08-11T07:03:46;10.47;;;5.93;;
20302;SDS011;10310;50.906;4.622;2022-08-11T07:06:24;9.13;;;5.90;;
20302;SDS011;10310;50.906;4.622;2022-08-11T07:09:07;10.53;;;5.43;;
20302;SDS011;10310;50.906;4.622;2022-08-11T07:12:06;7.03;;;5.33;;
20302;SDS011;10310;50.906;4.622;2022-08-11T07:15:14;12.37;;;6.00;;
20302;SDS011;10310;50.906;4.622;2022-08-11T07:18:00;7.60;;;5.67;;
20302;SDS011;10310;50.906;4.622;2022-08-11T07:20:49;11.60;;;5.77;;
20302;SDS011;10310;50.906;4.622;2022-08-11T07:23:35;10.00;;;5.40;;
20302;SDS011;10310;50.906;4.622;2022-08-11T07:26:23;8.87;;;5.53;;
20302;SDS011;10310;50.906;4.622;2022-08-11T07:29:08;8.30;;;5.00;;
20302;SDS011;10310;50.906;4.622;2022-08-11T07:31:39;11.87;;;5.00;;
20302;SDS011;10310;50.906;4.622;2022-08-11T07:34:13;12.57;;;4.97;;
20302;SDS011;10310;50.906;4.622;2022-08-11T07:36:46;9.37;;;4.80;;
20302;SDS011;10310;50.906;4.622;2022-08-11T07:39:18;9.40;;;4.73;;
20302;SDS011;10310;50.906;4.622;2022-08-11T07:41:48;10.97;;;4.80;;
20302;SDS011;10310;50.906;4.622;2022-08-11T07:44:18;7.30;;;5.10;;
20302;SDS011;10310;50.906;4.622;2022-08-11T07:46:46;8.53;;;4.67;;
20302;SDS011;10310;50.906;4.622;2022-08-11T07:49:33;6.77;;;4.93;;
20302;SDS011;10310;50.906;4.622;2022-08-11T07:52:20;7.93;;;4.33;;
20302;SDS011;10310;50.906;4.622;2022-08-11T07:54:58;10.70;;;4.77;;
20302;SDS011;10310;50.906;4.622;2022-08-11T07:57:29;10.57;;;4.53;;
20302;SDS011;10310;50.906;4.622;2022-08-11T08:00:15;7.97;;;4.60;;
20302;SDS011;10310;50.906;4.622;2022-08-11T08:03:00;9.33;;;4.80;;
20302;SDS011;10310;50.906;4.622;2022-08-11T08:05:45;5.17;;;4.03;;
20302;SDS011;10310;50.906;4.622;2022-08-11T08:08:30;5.00;;;3.97;;
20302;SDS011;10310;50.906;4.622;2022-08-11T08:11:15;8.90;;;4.60;;
20302;SDS011;10310;50.906;4.622;2022-08-11T08:14:04;10.50;;;4.43;;
20302;SDS011;10310;50.906;4.622;2022-08-11T08:16:49;9.07;;;4.00;;
20302;SDS011;10310;50.906;4.622;2022-08-11T08:19:34;6.70;;;4.23;;
20302;SDS011;10310;50.906;4.622;2022-08-11T08:22:01;5.67;;;4.13;;
20302;SDS011;10310;50.906;4.622;2022-08-11T08:24:29;10.07;;;4.33;;
20302;SDS011;10310;50.906;4.622;2022-08-11T08:26:57;5.67;;;3.90;;
20302;SDS011;10310;50.906;4.622;2022-08-11T08:29:26;6.33;;;4.20;;
20302;SDS011;10310;50.906;4.622;2022-08-11T08:32:13;7.00;;;4.10;;
20302;SDS011;10310;50.906;4.622;2022-08-11T08:34:41;5.63;;;4.30;;
20302;SDS011;10310;50.906;4.622;2022-08-11T08:37:09;8.33;;;4.57;;
20302;SDS011;10310;50.906;4.622;2022-08-11T08:39:36;12.60;;;4.30;;
20302;SDS011;10310;50.906;4.622;2022-08-11T08:42:05;8.37;;;4.60;;
20302;SDS011;10310;50.906;4.622;2022-08-11T08:44:40;5.63;;;4.60;;
20302;SDS011;10310;50.906;4.622;2022-08-11T08:47:12;10.10;;;4.27;;
20302;SDS011;10310;50.906;4.622;2022-08-11T08:49:43;4.87;;;4.37;;
20302;SDS011;10310;50.906;4.622;2022-08-11T08:52:15;7.57;;;4.77;;
20302;SDS011;10310;50.906;4.622;2022-08-11T08:54:48;7.07;;;4.53;;
20302;SDS011;10310;50.906;4.622;2022-08-11T08:57:20;4.80;;;4.00;;
20302;SDS011;10310;50.906;4.622;2022-08-11T08:59:49;7.10;;;3.97;;
20302;SDS011;10310;50.906;4.622;2022-08-11T09:02:17;5.43;;;3.97;;
20302;SDS011;10310;50.906;4.622;2022-08-11T09:04:48;8.20;;;4.20;;
20302;SDS011;10310;50.906;4.622;2022-08-11T09:07:17;6.70;;;4.20;;
20302;SDS011;10310;50.906;4.622;2022-08-11T09:09:47;5.30;;;4.03;;
20302;SDS011;10310;50.906;4.622;2022-08-11T09:12:17;5.00;;;4.10;;
20302;SDS011;10310;50.906;4.622;2022-08-11T09:14:47;6.83;;;3.83;;
20302;SDS011;10310;50.906;4.622;2022-08-11T09:17:33;8.80;;;3.77;;
20302;SDS011;10310;50.906;4.622;2022-08-11T09:20:06;5.90;;;3.90;;
20302;SDS011;10310;50.906;4.622;2022-08-11T09:22:35;4.40;;;3.40;;
20302;SDS011;10310;50.906;4.622;2022-08-11T09:25:21;5.67;;;3.77;;
20302;SDS011;10310;50.906;4.622;2022-08-11T09:28:21;5.17;;;3.87;;
20302;SDS011;10310;50.906;4.622;2022-08-11T09:30:51;5.63;;;4.20;;
20302;SDS011;10310;50.906;4.622;2022-08-11T09:33:19;6.13;;;4.17;;
20302;SDS011;10310;50.906;4.622;2022-08-11T09:35:47;4.93;;;3.83;;
20302;SDS011;10310;50.906;4.622;2022-08-11T09:38:16;7.70;;;4.63;;
20302;SDS011;10310;50.906;4.622;2022-08-11T09:41:02;5.27;;;4.20;;
20302;SDS011;10310;50.906;4.622;2022-08-11T09:43:32;5.30;;;4.50;;
20302;SDS011;10310;50.906;4.622;2022-08-11T09:46:24;6.70;;;4.30;;
20302;SDS011;10310;50.906;4.622;2022-08-11T09:48:53;7.90;;;4.00;;
20302;SDS011;10310;50.906;4.622;2022-08-11T09:51:23;6.93;;;4.10;;
20302;SDS011;10310;50.906;4.622;2022-08-11T09:53:50;4.87;;;3.83;;
20302;SDS011;10310;50.906;4.622;2022-08-11T09:56:19;5.87;;;4.53;;
20302;SDS011;10310;50.906;4.622;2022-08-11T09:59:06;5.30;;;3.80;;
20302;SDS011;10310;50.906;4.622;2022-08-11T10:01:36;4.30;;;3.90;;
20302;SDS011;10310;50.906;4.622;2022-08-11T10:04:07;7.13;;;3.77;;
20302;SDS011;10310;50.906;4.622;2022-08-11T10:06:39;4.70;;;3.90;;
20302;SDS011;10310;50.906;4.622;2022-08-11T10:09:24;7.17;;;4.23;;
20302;SDS011;10310;50.906;4.622;2022-08-11T10:11:53;6.83;;;3.93;;
20302;SDS011;10310;50.906;4.622;2022-08-11T10:14:23;6.20;;;4.20;;
20302;SDS011;10310;50.906;4.622;2022-08-11T10:17:10;5.70;;;4.03;;
20302;SDS011;10310;50.906;4.622;2022-08-11T10:19:39;5.37;;;3.77;;
20302;SDS011;10310;50.906;4.622;2022-08-11T10:22:08;5.43;;;4.10;;
20302;SDS011;10310;50.906;4.622;2022-08-11T10:24:53;7.73;;;3.83;;
20302;SDS011;10310;50.906;4.622;2022-08-11T10:27:40;5.83;;;3.80;;
20302;SDS011;10310;50.906;4.622;2022-08-11T10:30:08;7.53;;;3.83;;
20302;SDS011;10310;50.906;4.622;2022-08-11T10:32:55;5.27;;;3.80;;
20302;SDS011;10310;50.906;4.622;2022-08-11T10:35:41;6.60;;;4.10;;
20302;SDS011;10310;50.906;4.622;2022-08-11T10:38:11;5.43;;;4.13;;
20302;SDS011;10310;50.906;4.622;2022-08-11T10:40:39;6.33;;;4.00;;
20302;SDS011;10310;50.906;4.622;2022-08-11T10:43:11;5.17;;;4.10;;
20302;SDS011;10310;50.906;4.622;2022-08-11T10:45:40;12.20;;;4.37;;
20302;SDS011;10310;50.906;4.622;2022-08-11T10:48:29;5.83;;;3.83;;
20302;SDS011;10310;50.906;4.622;2022-08-11T10:51:00;6.63;;;4.17;;
20302;SDS011;10310;50.906;4.622;2022-08-11T10:53:40;4.97;;;4.20;;
20302;SDS011;10310;50.906;4.622;2022-08-11T10:56:26;7.23;;;4.23;;
20302;SDS011;10310;50.906;4.622;2022-08-11T10:59:12;5.57;;;3.50;;
20302;SDS011;10310;50.906;4.622;2022-08-11T11:01:40;4.53;;;3.90;;
20302;SDS011;10310;50.906;4.622;2022-08-11T11:04:12;6.97;;;3.33;;
20302;SDS011;10310;50.906;4.622;2022-08-11T11:06:47;4.80;;;3.90;;
20302;SDS011;10310;50.906;4.622;2022-08-11T11:09:18;8.87;;;4.30;;
20302;SDS011;10310;50.906;4.622;2022-08-11T11:11:55;5.57;;;3.70;;
20302;SDS011;10310;50.906;4.622;2022-08-11T11:14:42;7.67;;;3.90;;
20302;SDS011;10310;50.906;4.622;2022-08-11T11:17:28;5.17;;;3.20;;
20302;SDS011;10310;50.906;4.622;2022-08-11T11:20:20;4.43;;;3.40;;
20302;SDS011;10310;50.906;4.622;2022-08-11T11:22:50;6.27;;;3.77;;
20302;SDS011;10310;50.906;4.622;2022-08-11T11:25:21;4.03;;;3.63;;
20302;SDS011;10310;50.906;4.622;2022-08-11T11:27:58;6.53;;;3.93;;
20302;SDS011;10310;50.906;4.622;2022-08-11T11:30:40;4.87;;;3.40;;
20302;SDS011;10310;50.906;4.622;2022-08-11T11:33:15;11.73;;;3.60;;
20302;SDS011;10310;50.906;4.622;2022-08-11T11:35:54;4.10;;;3.30;;
20302;SDS011;10310;50.906;4.622;2022-08-11T11:38:35;4.70;;;3.30;;
20302;SDS011;10310;50.906;4.622;2022-08-11T11:41:03;4.50;;;3.03;;
20302;SDS011;10310;50.906;4.622;2022-08-11T11:43:47;5.37;;;3.30;;
20302;SDS011;10310;50.906;4.622;2022-08-11T11:46:14;3.83;;;3.37;;
20302;SDS011;10310;50.906;4.622;2022-08-11T11:48:42;5.07;;;3.27;;
20302;SDS011;10310;50.906;4.622;2022-08-11T11:51:11;5.80;;;3.33;;
20302;SDS011;10310;50.906;4.622;2022-08-11T11:53:39;5.07;;;3.23;;
20302;SDS011;10310;50.906;4.622;2022-08-11T11:56:09;4.07;;;3.30;;
20302;SDS011;10310;50.906;4.622;2022-08-11T11:58:37;4.27;;;3.40;;
20302;SDS011;10310;50.906;4.622;2022-08-11T12:01:23;3.60;;;3.30;;
20302;SDS011;10310;50.906;4.622;2022-08-11T12:03:51;3.40;;;3.10;;
20302;SDS011;10310;50.906;4.622;2022-08-11T12:06:21;4.60;;;3.20;;
20302;SDS011;10310;50.906;4.622;2022-08-11T12:08:49;4.23;;;3.27;;
20302;SDS011;10310;50.906;4.622;2022-08-11T12:11:18;4.60;;;3.23;;
20302;SDS011;10310;50.906;4.622;2022-08-11T12:14:05;12.63;;;3.33;;
20302;SDS011;10310;50.906;4.622;2022-08-11T12:16:34;5.20;;;3.10;;
20302;SDS011;10310;50.906;4.622;2022-08-11T12:19:04;4.57;;;3.10;;
20302;SDS011;10310;50.906;4.622;2022-08-11T12:21:36;4.63;;;3.20;;
20302;SDS011;10310;50.906;4.622;2022-08-11T12:24:24;4.70;;;2.80;;
20302;SDS011;10310;50.906;4.622;2022-08-11T12:27:09;6.10;;;3.40;;
20302;SDS011;10310;50.906;4.622;2022-08-11T12:29:46;3.40;;;3.10;;
20302;SDS011;10310;50.906;4.622;2022-08-11T12:32:15;6.37;;;3.00;;
20302;SDS011;10310;50.906;4.622;2022-08-11T12:34:43;4.77;;;3.20;;
20302;SDS011;10310;50.906;4.622;2022-08-11T12:37:12;3.03;;;2.73;;
20302;SDS011;10310;50.906;4.622;2022-08-11T12:39:43;7.70;;;2.90;;
20302;SDS011;10310;50.906;4.622;2022-08-11T12:42:32;4.20;;;3.03;;
20302;SDS011;10310;50.906;4.622;2022-08-11T12:45:20;5.27;;;2.70;;
20302;SDS011;10310;50.906;4.622;2022-08-11T12:47:58;4.70;;;3.17;;
20302;SDS011;10310;50.906;4.622;2022-08-11T12:50:49;4.03;;;3.00;;
20302;SDS011;10310;50.906;4.622;2022-08-11T12:53:41;3.47;;;2.67;;
20302;SDS011;10310;50.906;4.622;2022-08-11T12:56:11;3.43;;;2.93;;
20302;SDS011;10310;50.906;4.622;2022-08-11T12:58:56;4.13;;;3.40;;
20302;SDS011;10310;50.906;4.622;2022-08-11T13:01:42;3.90;;;3.20;;
20302;SDS011;10310;50.906;4.622;2022-08-11T13:04:27;5.33;;;3.17;;
20302;SDS011;10310;50.906;4.622;2022-08-11T13:07:13;4.23;;;2.87;;
20302;SDS011;10310;50.906;4.622;2022-08-11T13:09:43;3.20;;;2.70;;
20302;SDS011;10310;50.906;4.622;2022-08-11T13:12:11;5.07;;;2.80;;
20302;SDS011;10310;50.906;4.622;2022-08-11T13:14:57;5.40;;;3.07;;
20302;SDS011;10310;50.906;4.622;2022-08-11T13:17:25;7.03;;;3.27;;
20302;SDS011;10310;50.906;4.622;2022-08-11T13:19:54;4.03;;;3.23;;
20302;SDS011;10310;50.906;4.622;2022-08-11T13:22:23;3.60;;;3.13;;
20302;SDS011;10310;50.906;4.622;2022-08-11T13:24:52;5.80;;;3.00;;
20302;SDS011;10310;50.906;4.622;2022-08-11T13:27:21;4.23;;;3.17;;
20302;SDS011;10310;50.906;4.622;2022-08-11T13:29:49;3.53;;;3.23;;
20302;SDS011;10310;50.906;4.622;2022-08-11T13:32:38;6.43;;;3.40;;
20302;SDS011;10310;50.906;4.622;2022-08-11T13:35:07;3.83;;;3.10;;
20302;SDS011;10310;50.906;4.622;2022-08-11T13:37:34;3.97;;;3.43;;
20302;SDS011;10310;50.906;4.622;2022-08-11T13:40:03;3.63;;;3.33;;
20302;SDS011;10310;50.906;4.622;2022-08-11T13:42:31;4.30;;;3.20;;
20302;SDS011;10310;50.906;4.622;2022-08-11T13:44:58;3.67;;;3.37;;
20302;SDS011;10310;50.906;4.622;2022-08-11T13:47:25;3.63;;;3.13;;
20302;SDS011;10310;50.906;4.622;2022-08-11T13:49:53;4.17;;;3.20;;
20302;SDS011;10310;50.906;4.622;2022-08-11T13:52:21;3.53;;;3.00;;
20302;SDS011;10310;50.906;4.622;2022-08-11T13:54:50;3.53;;;3.23;;
20302;SDS011;10310;50.906;4.622;2022-08-11T13:57:19;3.47;;;3.17;;
20302;SDS011;10310;50.906;4.622;2022-08-11T13:59:51;6.95;;;3.25;;
20302;SDS011;10310;50.906;4.622;2022-08-11T14:02:33;3.92;;;3.20;;
20302;SDS011;10310;50.906;4.622;2022-08-11T14:05:04;5.53;;;4.00;;
20302;SDS011;10310;50.906;4.622;2022-08-11T14:07:36;5.93;;;3.40;;
20302;SDS011;10310;50.906;4.622;2022-08-11T14:10:05;5.10;;;3.22;;
20302;SDS011;10310;50.906;4.622;2022-08-11T14:12:36;6.70;;;3.35;;
20302;SDS011;10310;50.906;4.622;2022-08-11T14:15:25;4.68;;;3.05;;
20302;SDS011;10310;50.906;4.622;2022-08-11T14:17:56;8.15;;;3.45;;
20302;SDS011;10310;50.906;4.622;2022-08-11T14:20:27;7.65;;;3.38;;
20302;SDS011;10310;50.906;4.622;2022-08-11T14:23:18;6.18;;;3.42;;
20302;SDS011;10310;50.906;4.622;2022-08-11T14:25:48;4.57;;;3.40;;
20302;SDS011;10310;50.906;4.622;2022-08-11T14:28:34;4.95;;;3.28;;
20302;SDS011;10310;50.906;4.622;2022-08-11T14:31:03;4.40;;;3.80;;
20302;SDS011;10310;50.906;4.622;2022-08-11T14:33:32;6.15;;;3.30;;
20302;SDS011;10310;50.906;4.622;2022-08-11T14:36:01;6.30;;;3.50;;
20302;SDS011;10310;50.906;4.622;2022-08-11T14:38:30;4.00;;;3.50;;
20302;SDS011;10310;50.906;4.622;2022-08-11T14:40:59;4.32;;;3.58;;
20302;SDS011;10310;50.906;4.622;2022-08-11T14:43:45;3.90;;;3.50;;
20302;SDS011;10310;50.906;4.622;2022-08-11T14:46:45;3.65;;;3.28;;
20302;SDS011;10310;50.906;4.622;2022-08-11T14:49:30;5.57;;;3.33;;
20302;SDS011;10310;50.906;4.622;2022-08-11T14:52:00;5.00;;;3.80;;
20302;SDS011;10310;50.906;4.622;2022-08-11T14:54:30;4.43;;;3.97;;
20302;SDS011;10310;50.906;4.622;2022-08-11T14:57:15;4.80;;;3.60;;
20302;SDS011;10310;50.906;4.622;2022-08-11T14:59:45;3.83;;;3.42;;
20302;SDS011;10310;50.906;4.622;2022-08-11T15:02:14;4.88;;;3.65;;
20302;SDS011;10310;50.906;4.622;2022-08-11T15:05:00;5.13;;;3.38;;
20302;SDS011;10310;50.906;4.622;2022-08-11T15:07:30;4.05;;;3.17;;
20302;SDS011;10310;50.906;4.622;2022-08-11T15:09:58;6.55;;;3.67;;
20302;SDS011;10310;50.906;4.622;2022-08-11T15:12:27;7.45;;;3.30;;
20302;SDS011;10310;50.906;4.622;2022-08-11T15:14:56;3.95;;;3.28;;
20302;SDS011;10310;50.906;4.622;2022-08-11T15:17:41;5.50;;;3.50;;
20302;SDS011;10310;50.906;4.622;2022-08-11T15:20:11;3.85;;;3.50;;
20302;SDS011;10310;50.906;4.622;2022-08-11T15:22:58;6.03;;;3.55;;
20302;SDS011;10310;50.906;4.622;2022-08-11T15:25:43;7.63;;;3.40;;
20302;SDS011;10310;50.906;4.622;2022-08-11T15:28:15;3.90;;;3.45;;
20302;SDS011;10310;50.906;4.622;2022-08-11T15:31:03;5.05;;;3.30;;
20302;SDS011;10310;50.906;4.622;2022-08-11T15:33:48;6.10;;;3.22;;
20302;SDS011;10310;50.906;4.622;2022-08-11T15:36:35;5.82;;;3.30;;
20302;SDS011;10310;50.906;4.622;2022-08-11T15:39:22;5.57;;;4.45;;
20302;SDS011;10310;50.906;4.622;2022-08-11T15:41:56;4.03;;;3.20;;
20302;SDS011;10310;50.906;4.622;2022-08-11T15:44:44;4.22;;;3.30;;
20302;SDS011;10310;50.906;4.622;2022-08-11T15:47:41;5.50;;;3.13;;
20302;SDS011;10310;50.906;4.622;2022-08-11T15:50:15;5.20;;;3.25;;
20302;SDS011;10310;50.906;4.622;2022-08-11T15:52:47;5.13;;;3.20;;
20302;SDS011;10310;50.906;4.622;2022-08-11T15:55:17;8.48;;;3.30;;
20302;SDS011;10310;50.906;4.622;2022-08-11T15:57:46;3.88;;;3.55;;
20302;SDS011;10310;50.906;4.622;2022-08-11T16:00:33;3.10;;;2.80;;
20302;SDS011;10310;50.906;4.622;2022-08-11T16:03:21;6.63;;;3.75;;
20302;SDS011;10310;50.906;4.622;2022-08-11T16:06:07;3.22;;;2.92;;
20302;SDS011;10310;50.906;4.622;2022-08-11T16:08:34;4.80;;;3.10;;
20302;SDS011;10310;50.906;4.622;2022-08-11T16:11:05;4.28;;;3.25;;
20302;SDS011;10310;50.906;4.622;2022-08-11T16:13:33;7.13;;;2.88;;
20302;SDS011;10310;50.906;4.622;2022-08-11T16:16:20;7.45;;;3.13;;
20302;SDS011;10310;50.906;4.622;2022-08-11T16:18:49;5.57;;;3.22;;
20302;SDS011;10310;50.906;4.622;2022-08-11T16:21:21;7.82;;;3.58;;
20302;SDS011;10310;50.906;4.622;2022-08-11T16:23:51;4.80;;;3.10;;
20302;SDS011;10310;50.906;4.622;2022-08-11T16:26:20;6.55;;;3.20;;
20302;SDS011;10310;50.906;4.622;2022-08-11T16:28:49;4.80;;;3.25;;
20302;SDS011;10310;50.906;4.622;2022-08-11T16:31:18;5.15;;;3.30;;
20302;SDS011;10310;50.906;4.622;2022-08-11T16:33:46;5.47;;;3.20;;
20302;SDS011;10310;50.906;4.622;2022-08-11T16:36:16;3.80;;;3.03;;
20302;SDS011;10310;50.906;4.622;2022-08-11T16:39:03;5.85;;;3.38;;
20302;SDS011;10310;50.906;4.622;2022-08-11T16:41:32;3.40;;;3.08;;
20302;SDS011;10310;50.906;4.622;2022-08-11T16:44:19;3.70;;;3.00;;
20302;SDS011;10310;50.906;4.622;2022-08-11T16:47:06;5.10;;;3.45;;
20302;SDS011;10310;50.906;4.622;2022-08-11T16:49:37;5.78;;;3.50;;
20302;SDS011;10310;50.906;4.622;2022-08-11T16:52:09;3.70;;;3.22;;
20302;SDS011;10310;50.906;4.622;2022-08-11T16:54:37;3.95;;;3.10;;
20302;SDS011;10310;50.906;4.622;2022-08-11T16:57:06;5.07;;;3.20;;